createdAt,value
2023-04-11T00:00:19.882Z,15.50
2023-04-11T00:02:46.946Z,15.60
2023-04-11T00:05:13.903Z,15.50
2023-04-11T00:07:40.632Z,15.50
2023-04-11T00:10:08.141Z,15.50
2023-04-11T00:12:34.870Z,15.50
2023-04-11T00:15:01.639Z,15.50
2023-04-11T00:17:31.283Z,15.50
2023-04-11T00:20:01.848Z,15.50
2023-04-11T00:22:28.851Z,15.50
2023-04-11T00:24:55.544Z,15.50
2023-04-11T00:27:22.308Z,15.50
2023-04-11T00:29:49.057Z,15.50
2023-04-11T00:32:15.865Z,15.50
2023-04-11T00:34:43.034Z,15.50
2023-04-11T00:37:10.490Z,15.50
2023-04-11T00:39:38.264Z,15.50
2023-04-11T00:42:07.007Z,15.50
2023-04-11T00:44:35.267Z,15.50
2023-04-11T00:47:03.457Z,15.40
2023-04-11T00:49:31.946Z,15.50
2023-04-11T00:51:59.841Z,15.50
2023-04-11T00:54:30.386Z,15.50
2023-04-11T00:56:59.922Z,15.50
2023-04-11T00:59:31.198Z,15.40
2023-04-11T01:01:59.079Z,15.50
2023-04-11T01:04:26.648Z,15.40
2023-04-11T01:06:59.525Z,15.40
2023-04-11T01:09:28.436Z,15.40
2023-04-11T01:11:56.311Z,15.40
2023-04-11T01:14:25.634Z,15.40
2023-04-11T01:16:53.006Z,15.40
2023-04-11T01:19:21.486Z,15.40
2023-04-11T01:21:49.585Z,15.40
2023-04-11T01:24:16.532Z,15.40
2023-04-11T01:26:43.573Z,15.40
2023-04-11T01:29:11.277Z,15.40
2023-04-11T01:31:38.574Z,15.40
2023-04-11T01:34:05.635Z,15.40
2023-04-11T01:36:32.662Z,15.40
2023-04-11T01:39:00.006Z,15.40
2023-04-11T01:41:29.346Z,15.40
2023-04-11T01:43:56.632Z,15.40
2023-04-11T01:46:25.070Z,15.40
2023-04-11T01:48:56.647Z,15.40
2023-04-11T01:51:23.790Z,15.40
2023-04-11T01:53:50.545Z,15.40
2023-04-11T01:56:17.225Z,15.40
2023-04-11T01:58:46.177Z,15.40
2023-04-11T02:01:13.303Z,15.40
2023-04-11T02:03:40.307Z,15.40
2023-04-11T02:06:07.180Z,15.40
2023-04-11T02:08:33.882Z,15.40
2023-04-11T02:11:00.623Z,15.30
2023-04-11T02:13:27.355Z,15.30
2023-04-11T02:15:54.217Z,15.30
2023-04-11T02:18:21.490Z,15.30
2023-04-11T02:20:48.218Z,15.30
2023-04-11T02:23:16.143Z,15.30
2023-04-11T02:25:43.100Z,15.30
2023-04-11T02:28:09.923Z,15.30
2023-04-11T02:30:36.669Z,15.30
2023-04-11T02:33:04.099Z,15.30
2023-04-11T02:35:30.983Z,15.30
2023-04-11T02:38:00.553Z,15.30
2023-04-11T02:40:27.353Z,15.30
2023-04-11T02:42:54.084Z,15.30
2023-04-11T02:45:21.713Z,15.30
2023-04-11T02:47:48.575Z,15.30
2023-04-11T02:50:16.032Z,15.30
2023-04-11T02:52:49.196Z,15.20
2023-04-11T02:55:19.706Z,15.20
2023-04-11T02:57:46.366Z,15.20
2023-04-11T03:00:16.567Z,15.20
2023-04-11T03:02:49.425Z,15.20
2023-04-11T03:05:20.462Z,15.20
2023-04-11T03:07:49.710Z,15.20
2023-04-11T03:10:16.565Z,15.20
2023-04-11T03:12:43.764Z,15.20
2023-04-11T03:15:15.123Z,15.20
2023-04-11T03:17:42.214Z,15.20
2023-04-11T03:20:13.559Z,15.20
2023-04-11T03:22:48.473Z,15.20
2023-04-11T03:25:16.914Z,15.20
2023-04-11T03:27:45.657Z,15.20
2023-04-11T03:30:13.905Z,15.20
2023-04-11T03:32:43.101Z,15.20
2023-04-11T03:35:11.359Z,15.20
2023-04-11T03:37:44.369Z,15.20
2023-04-11T03:40:11.571Z,15.20
2023-04-11T03:42:42.191Z,15.20
2023-04-11T03:45:13.978Z,15.20
2023-04-11T03:47:40.941Z,15.20
2023-04-11T03:50:09.338Z,15.20
2023-04-11T03:52:42.140Z,15.10
2023-04-11T03:55:13.078Z,15.10
2023-04-11T03:57:39.821Z,15.10
2023-04-11T04:00:08.018Z,15.10
2023-04-11T04:02:42.143Z,15.10
2023-04-11T04:05:13.134Z,15.10
2023-04-11T04:07:40.884Z,15.10
2023-04-11T04:10:27.913Z,15.10
2023-04-11T04:12:55.426Z,15.10
2023-04-11T04:15:32.723Z,15.10
2023-04-11T04:18:01.321Z,15.10
2023-04-11T04:20:41.627Z,15.10
2023-04-11T04:23:08.674Z,15.10
2023-04-11T04:25:50.604Z,15.10
2023-04-11T04:28:22.614Z,15.10
2023-04-11T04:30:54.104Z,15.10
2023-04-11T04:33:23.327Z,15.10
2023-04-11T04:35:51.947Z,15.10
2023-04-11T04:38:19.477Z,15.00
2023-04-11T04:40:54.708Z,15.00
2023-04-11T04:43:24.224Z,15.00
2023-04-11T04:46:01.341Z,15.00
2023-04-11T04:48:35.811Z,15.00
2023-04-11T04:51:04.602Z,15.00
2023-04-11T04:53:38.477Z,15.00
2023-04-11T04:56:06.614Z,15.00
2023-04-11T04:58:37.804Z,15.00
2023-04-11T05:01:09.266Z,15.00
2023-04-11T05:03:38.811Z,15.00
2023-04-11T05:06:10.247Z,15.00
2023-04-11T05:08:38.026Z,14.90
2023-04-11T05:11:07.324Z,14.90
2023-04-11T05:13:35.692Z,14.90
2023-04-11T05:16:04.353Z,14.90
2023-04-11T05:18:31.405Z,14.90
2023-04-11T05:20:58.410Z,14.90
2023-04-11T05:23:31.673Z,14.90
2023-04-11T05:26:01.867Z,14.90
2023-04-11T05:28:33.852Z,14.90
2023-04-11T05:31:03.184Z,14.90
2023-04-11T05:33:30.789Z,14.90
2023-04-11T05:35:58.484Z,14.90
2023-04-11T05:38:25.489Z,14.90
2023-04-11T05:40:52.622Z,14.90
2023-04-11T05:43:19.667Z,14.90
2023-04-11T05:45:48.104Z,14.90
2023-04-11T05:48:18.740Z,14.90
2023-04-11T05:50:46.462Z,14.90
2023-04-11T05:53:13.201Z,14.90
2023-04-11T05:55:39.924Z,14.90
2023-04-11T05:58:06.657Z,14.90
2023-04-11T06:00:33.351Z,14.90
2023-04-11T06:03:00.958Z,14.90
2023-04-11T06:05:31.358Z,14.90
2023-04-11T06:07:59.446Z,14.90
2023-04-11T06:10:26.810Z,15.00
2023-04-11T06:12:53.959Z,15.10
2023-04-11T06:15:22.097Z,15.20
2023-04-11T06:17:48.896Z,15.30
2023-04-11T06:20:16.693Z,15.40
2023-04-11T06:22:43.843Z,15.50
2023-04-11T06:25:10.781Z,15.60
2023-04-11T06:27:37.542Z,15.70
2023-04-11T06:30:05.403Z,15.80
2023-04-11T06:32:32.162Z,15.90
2023-04-11T06:34:58.839Z,15.90
2023-04-11T06:37:26.059Z,16.00
2023-04-11T06:39:52.821Z,16.10
2023-04-11T06:42:19.547Z,16.20
2023-04-11T06:44:46.674Z,16.20
2023-04-11T06:47:13.454Z,16.30
2023-04-11T06:49:41.191Z,16.20
2023-04-11T06:52:08.058Z,16.30
2023-04-11T06:54:34.870Z,16.30
2023-04-11T06:57:02.276Z,16.30
2023-04-11T06:59:29.208Z,16.30
2023-04-11T07:01:56.187Z,16.30
2023-04-11T07:04:23.169Z,16.40
2023-04-11T07:06:50.418Z,16.30
2023-04-11T07:09:17.167Z,16.30
2023-04-11T07:11:44.319Z,16.30
2023-04-11T07:14:11.113Z,16.30
2023-04-11T07:16:38.135Z,16.30
2023-04-11T07:19:04.943Z,16.30
2023-04-11T07:21:32.333Z,16.30
2023-04-11T07:24:00.585Z,16.30
2023-04-11T07:26:32.184Z,16.30
2023-04-11T07:28:59.773Z,16.30
2023-04-11T07:31:27.270Z,16.20
2023-04-11T07:33:54.268Z,16.30
2023-04-11T07:36:21.504Z,16.20
2023-04-11T07:38:48.424Z,16.20
2023-04-11T07:41:16.373Z,16.20
2023-04-11T07:43:43.321Z,16.20
2023-04-11T07:46:10.304Z,16.20
2023-04-11T07:48:37.049Z,16.20
2023-04-11T07:51:03.835Z,16.20
2023-04-11T07:53:32.633Z,16.20
2023-04-11T07:55:59.672Z,16.20
2023-04-11T07:58:26.380Z,16.10
2023-04-11T08:00:53.602Z,16.10
2023-04-11T08:03:20.982Z,16.00
2023-04-11T08:05:47.926Z,15.90
2023-04-11T08:08:14.703Z,15.90
2023-04-11T08:10:41.405Z,15.90
2023-04-11T08:13:08.170Z,15.90
2023-04-11T08:15:36.834Z,15.90
2023-04-11T08:18:05.116Z,16.00
2023-04-11T08:20:32.025Z,15.90
2023-04-11T08:22:59.395Z,15.90
2023-04-11T08:25:26.348Z,15.90
2023-04-11T08:27:53.259Z,15.90
2023-04-11T08:30:20.604Z,15.90
2023-04-11T08:32:47.549Z,15.90
2023-04-11T08:35:14.464Z,15.90
2023-04-11T08:37:41.556Z,15.90
2023-04-11T08:40:09.058Z,15.90
2023-04-11T08:42:36.099Z,15.80
2023-04-11T08:45:08.325Z,15.80
2023-04-11T08:47:36.698Z,15.80
2023-04-11T08:50:05.782Z,15.80
2023-04-11T08:52:34.053Z,15.80
2023-04-11T08:55:01.652Z,15.80
2023-04-11T08:57:32.966Z,15.80
2023-04-11T09:00:11.124Z,15.80
2023-04-11T09:02:57.887Z,15.80
2023-04-11T09:05:31.696Z,15.80
2023-04-11T09:08:00.733Z,15.80
2023-04-11T09:10:27.894Z,15.70
2023-04-11T09:12:55.819Z,15.70
2023-04-11T09:15:24.881Z,15.70
2023-04-11T09:17:52.438Z,15.70
2023-04-11T09:20:26.305Z,15.70
2023-04-11T09:22:54.116Z,15.70
2023-04-11T09:25:23.482Z,15.70
2023-04-11T09:28:06.468Z,15.70
2023-04-11T09:30:33.655Z,15.60
2023-04-11T09:33:19.301Z,15.70
2023-04-11T09:35:49.228Z,15.60
2023-04-11T09:38:34.499Z,15.60
2023-04-11T09:41:03.023Z,15.60
2023-04-11T09:43:53.629Z,15.60
2023-04-11T09:46:21.200Z,15.60
2023-04-11T09:48:49.535Z,15.60
2023-04-11T09:51:31.815Z,15.60
2023-04-11T09:54:03.591Z,15.60
2023-04-11T09:56:31.641Z,15.60
2023-04-11T09:59:00.713Z,15.60
2023-04-11T10:01:28.090Z,15.60
2023-04-11T10:03:56.788Z,15.60
2023-04-11T10:06:44.902Z,15.60
2023-04-11T10:09:13.818Z,15.60
2023-04-11T10:11:44.839Z,15.60
2023-04-11T10:14:39.683Z,15.60
2023-04-11T10:17:21.365Z,15.60
2023-04-11T10:19:51.452Z,15.60
2023-04-11T10:22:43.414Z,15.70
2023-04-11T10:25:24.639Z,15.70
2023-04-11T10:27:54.749Z,15.70
2023-04-11T10:30:39.370Z,15.70
2023-04-11T10:33:22.026Z,15.70
2023-04-11T10:36:03.637Z,15.70
2023-04-11T10:38:49.051Z,15.70
2023-04-11T10:41:33.666Z,15.80
2023-04-11T10:44:18.408Z,15.80
2023-04-11T10:46:47.589Z,15.70
2023-04-11T10:49:35.215Z,15.80
2023-04-11T10:52:22.350Z,15.80
2023-04-11T10:54:53.562Z,15.80
2023-04-11T10:57:21.694Z,15.80
2023-04-11T10:59:51.404Z,15.80
2023-04-11T11:02:21.959Z,15.80
2023-04-11T11:04:49.317Z,15.80
2023-04-11T11:07:17.364Z,15.80
2023-04-11T11:09:49.346Z,15.80
2023-04-11T11:12:17.045Z,15.80
2023-04-11T11:14:46.797Z,15.80
2023-04-11T11:17:14.950Z,15.80
2023-04-11T11:19:48.621Z,15.90
2023-04-11T11:22:25.386Z,15.90
2023-04-11T11:24:52.850Z,15.90
2023-04-11T11:27:20.569Z,15.90
2023-04-11T11:29:47.261Z,15.90
2023-04-11T11:32:27.926Z,15.90
2023-04-11T11:34:55.352Z,15.90
2023-04-11T11:37:23.152Z,15.90
2023-04-11T11:39:50.583Z,15.90
2023-04-11T11:42:18.254Z,15.90
2023-04-11T11:44:44.958Z,15.90
2023-04-11T11:47:15.201Z,15.90
2023-04-11T11:49:48.130Z,15.90
2023-04-11T11:52:39.815Z,15.90
2023-04-11T11:55:27.496Z,15.90
2023-04-11T11:57:54.353Z,15.90
2023-04-11T12:00:26.067Z,15.90
2023-04-11T12:02:54.350Z,15.90
2023-04-11T12:05:23.980Z,15.90
2023-04-11T12:07:58.544Z,15.90
2023-04-11T12:10:35.398Z,15.90
2023-04-11T12:13:02.191Z,15.90
2023-04-11T12:15:29.045Z,15.90
2023-04-11T12:17:56.050Z,15.90
2023-04-11T12:20:24.309Z,15.90
2023-04-11T12:22:52.250Z,15.90
2023-04-11T12:25:22.826Z,15.90
2023-04-11T12:27:49.615Z,15.80
2023-04-11T12:30:16.686Z,15.90
2023-04-11T12:32:44.907Z,15.80
2023-04-11T12:35:12.996Z,15.80
2023-04-11T12:37:40.380Z,15.80
2023-04-11T12:40:15.325Z,15.80
2023-04-11T12:42:49.549Z,15.80
2023-04-11T12:45:22.526Z,15.80
2023-04-11T12:47:49.357Z,15.80
2023-04-11T12:50:16.292Z,15.80
2023-04-11T12:52:44.110Z,15.80
2023-04-11T12:55:11.173Z,15.80
2023-04-11T12:57:38.010Z,15.80
2023-04-11T13:00:07.016Z,15.80
2023-04-11T13:02:42.064Z,15.80
2023-04-11T13:05:10.904Z,15.80
2023-04-11T13:07:37.833Z,15.80
2023-04-11T13:10:08.088Z,15.80
2023-04-11T13:12:39.684Z,15.80
2023-04-11T13:15:08.130Z,15.80
2023-04-11T13:17:35.101Z,15.80
2023-04-11T13:20:02.352Z,15.80
2023-04-11T13:22:29.290Z,15.80
2023-04-11T13:24:55.986Z,15.80
2023-04-11T13:27:23.043Z,15.80
2023-04-11T13:29:49.780Z,15.80
2023-04-11T13:32:16.623Z,15.80
2023-04-11T13:34:43.358Z,15.80
2023-04-11T13:37:10.028Z,15.80
2023-04-11T13:39:36.803Z,15.80
2023-04-11T13:42:03.497Z,15.70
2023-04-11T13:44:30.230Z,15.80
2023-04-11T13:46:57.044Z,15.80
2023-04-11T13:49:23.767Z,15.80
2023-04-11T13:51:50.615Z,15.80
2023-04-11T13:54:17.271Z,15.80
2023-04-11T13:56:43.968Z,15.80
2023-04-11T13:59:10.669Z,15.80
2023-04-11T14:01:37.896Z,15.80
2023-04-11T14:04:05.265Z,15.80
2023-04-11T14:06:32.410Z,15.80
2023-04-11T14:08:59.175Z,15.80
2023-04-11T14:11:25.990Z,15.80
2023-04-11T14:13:52.740Z,15.80
2023-04-11T14:16:19.655Z,15.80
2023-04-11T14:18:46.484Z,15.80
2023-04-11T14:21:13.346Z,15.80
2023-04-11T14:23:40.129Z,15.80
2023-04-11T14:26:07.042Z,15.80
2023-04-11T14:28:33.990Z,15.80
2023-04-11T14:31:00.852Z,15.80
2023-04-11T14:33:27.642Z,15.80
2023-04-11T14:35:54.376Z,15.90
2023-04-11T14:38:21.062Z,15.90
2023-04-11T14:40:47.784Z,15.90
2023-04-11T14:43:14.491Z,15.90
2023-04-11T14:45:41.222Z,15.90
2023-04-11T14:48:08.085Z,15.90
2023-04-11T14:50:34.780Z,15.90
2023-04-11T14:53:01.660Z,15.90
2023-04-11T14:55:28.461Z,16.00
2023-04-11T14:57:55.908Z,16.00
2023-04-11T15:00:24.698Z,16.00
2023-04-11T15:02:57.241Z,16.00
2023-04-11T15:05:24.550Z,16.00
2023-04-11T15:07:52.853Z,16.00
2023-04-11T15:10:22.469Z,16.10
2023-04-11T15:12:49.452Z,16.10
2023-04-11T15:15:16.524Z,16.10
2023-04-11T15:17:48.793Z,16.10
2023-04-11T15:20:16.479Z,16.10
2023-04-11T15:22:46.276Z,16.10
2023-04-11T15:25:16.140Z,16.20
2023-04-11T15:27:43.331Z,16.20
2023-04-11T15:30:11.226Z,16.20
2023-04-11T15:32:43.575Z,16.20
2023-04-11T15:35:10.633Z,16.30
2023-04-11T15:37:37.436Z,16.30
2023-04-11T15:40:09.279Z,16.30
2023-04-11T15:42:37.536Z,16.30
2023-04-11T15:45:05.261Z,16.30
2023-04-11T15:47:31.957Z,16.40
2023-04-11T15:50:04.174Z,16.40
2023-04-11T15:52:31.088Z,16.40
2023-04-11T15:54:57.838Z,16.40
2023-04-11T15:57:24.802Z,16.50
2023-04-11T15:59:51.506Z,16.50
2023-04-11T16:02:18.324Z,16.50
2023-04-11T16:04:47.849Z,16.60
2023-04-11T16:07:18.413Z,16.60
2023-04-11T16:09:46.308Z,16.70
2023-04-11T16:12:13.484Z,16.70
2023-04-11T16:14:40.319Z,16.80
2023-04-11T16:17:07.001Z,16.80
2023-04-11T16:19:33.735Z,17.00
2023-04-11T16:22:00.657Z,17.10
2023-04-11T16:24:29.399Z,17.30
2023-04-11T16:26:57.117Z,17.50
2023-04-11T16:29:24.773Z,17.80
2023-04-11T16:31:51.634Z,18.10
2023-04-11T16:34:18.600Z,18.50
2023-04-11T16:36:45.334Z,18.90
2023-04-11T16:39:12.009Z,19.20
2023-04-11T16:41:38.695Z,19.60
2023-04-11T16:44:11.107Z,19.90
2023-04-11T16:46:41.836Z,20.20
2023-04-11T16:49:09.120Z,20.60
2023-04-11T16:51:38.676Z,20.90
2023-04-11T16:54:09.724Z,21.20
2023-04-11T16:56:39.476Z,21.40
2023-04-11T16:59:06.380Z,21.70
2023-04-11T17:01:33.197Z,21.90
2023-04-11T17:04:01.279Z,22.10
2023-04-11T17:06:28.365Z,22.30
2023-04-11T17:08:57.014Z,22.50
2023-04-11T17:11:23.867Z,22.70
2023-04-11T17:13:50.845Z,22.80
2023-04-11T17:16:18.417Z,22.90
2023-04-11T17:18:45.301Z,23.00
2023-04-11T17:21:12.034Z,23.10
2023-04-11T17:23:43.100Z,23.10
2023-04-11T17:26:23.702Z,23.20
2023-04-11T17:29:04.996Z,23.30
2023-04-11T17:31:38.139Z,23.30
2023-04-11T17:37:18.603Z,23.30
2023-04-11T17:39:46.378Z,23.30
2023-04-11T17:42:14.511Z,23.40
2023-04-11T17:44:41.308Z,23.40
2023-04-11T17:47:08.052Z,23.40
2023-04-11T17:49:34.935Z,23.40
2023-04-11T17:52:01.804Z,23.40
2023-04-11T17:54:28.874Z,23.40
2023-04-11T17:56:56.220Z,23.40
2023-04-11T18:02:12.809Z,23.40
2023-04-11T18:04:44.563Z,23.30
2023-04-11T18:07:15.007Z,23.30
2023-04-11T18:09:48.487Z,23.30
2023-04-11T18:12:16.144Z,23.30
2023-04-11T18:15:06.792Z,23.30
2023-04-11T18:17:36.139Z,23.20
2023-04-11T18:20:10.626Z,23.20
2023-04-11T18:22:58.018Z,23.20
2023-04-11T18:25:36.087Z,23.20
2023-04-11T18:28:12.458Z,23.10
2023-04-11T18:30:40.273Z,23.10
2023-04-11T18:33:07.212Z,23.10
2023-04-11T18:35:55.814Z,23.00
2023-04-11T18:38:45.699Z,23.00
2023-04-11T18:44:17.705Z,22.90
2023-04-11T18:49:51.642Z,22.90
2023-04-11T18:55:19.771Z,22.80
2023-04-11T19:01:17.350Z,22.70
2023-04-11T19:04:18.381Z,22.60
2023-04-11T19:10:26.838Z,22.50
2023-04-11T19:12:57.212Z,22.50
2023-04-11T19:15:34.721Z,22.50
2023-04-11T19:18:06.963Z,22.40
2023-04-11T19:20:38.855Z,22.40
2023-04-11T19:23:23.767Z,22.40
2023-04-11T19:26:11.483Z,22.30
2023-04-11T19:28:41.859Z,22.30
2023-04-11T19:31:10.305Z,22.30
2023-04-11T19:34:03.157Z,22.20
2023-04-11T19:42:55.806Z,22.10
2023-04-11T19:45:38.531Z,22.10
2023-04-11T19:48:06.157Z,22.00
2023-04-11T19:50:44.339Z,22.00
2023-04-11T19:53:11.286Z,21.90
2023-04-11T19:55:41.361Z,21.90
2023-04-11T19:58:11.943Z,21.90
2023-04-11T20:00:38.895Z,21.90
2023-04-11T20:03:07.535Z,21.80
2023-04-11T20:05:34.595Z,21.80
2023-04-11T20:08:01.471Z,21.80
2023-04-11T20:10:28.321Z,21.70
2023-04-11T20:12:54.979Z,21.70
2023-04-11T20:15:21.782Z,21.70
2023-04-11T20:17:48.637Z,21.60
2023-04-11T20:20:15.699Z,21.60
2023-04-11T20:22:44.813Z,21.60
2023-04-11T20:25:12.044Z,21.60
2023-04-11T20:27:39.638Z,21.60
2023-04-11T20:30:09.555Z,21.50
2023-04-11T20:32:37.272Z,21.40
2023-04-11T20:35:05.026Z,21.40
2023-04-11T20:37:34.395Z,21.40
2023-04-11T20:40:02.056Z,21.30
2023-04-11T20:42:29.199Z,21.30
2023-04-11T20:45:06.174Z,21.20
2023-04-11T20:47:37.473Z,21.20
2023-04-11T20:50:07.279Z,21.10
2023-04-11T20:52:34.676Z,21.10
2023-04-11T20:55:02.585Z,21.00
2023-04-11T20:57:30.166Z,21.00
2023-04-11T20:59:57.925Z,21.00
2023-04-11T21:02:26.144Z,20.90
2023-04-11T21:04:53.686Z,20.90
2023-04-11T21:07:20.918Z,20.90
2023-04-11T21:09:48.679Z,20.80
2023-04-11T21:12:16.212Z,20.80
2023-04-11T21:14:42.899Z,20.80
2023-04-11T21:17:09.712Z,20.70
2023-04-11T21:19:37.360Z,20.70
2023-04-11T21:22:04.772Z,20.60
2023-04-11T21:24:34.862Z,20.60
2023-04-11T21:27:02.422Z,20.60
2023-04-11T21:29:29.251Z,20.60
2023-04-11T21:31:55.969Z,20.50
2023-04-11T21:34:22.783Z,20.50
2023-04-11T21:36:50.225Z,20.50
2023-04-11T21:39:16.919Z,20.40
2023-04-11T21:41:43.697Z,20.40
2023-04-11T21:44:10.485Z,20.40
2023-04-11T21:46:37.249Z,20.30
2023-04-11T21:49:04.074Z,20.30
2023-04-11T21:51:30.883Z,20.30
2023-04-11T21:53:57.758Z,20.30
2023-04-11T21:56:24.583Z,20.30
2023-04-11T21:58:51.288Z,20.20
2023-04-11T22:01:20.660Z,20.20
2023-04-11T22:03:50.419Z,20.20
2023-04-11T22:06:17.884Z,20.10
2023-04-11T22:08:50.607Z,20.10
2023-04-11T22:11:18.040Z,20.10
2023-04-11T22:13:46.321Z,20.10
2023-04-11T22:16:14.090Z,20.00
2023-04-11T22:18:48.954Z,20.00
2023-04-11T22:21:19.797Z,20.00
2023-04-11T22:23:54.617Z,19.90
2023-04-11T22:26:29.221Z,19.90
2023-04-11T22:29:00.023Z,19.90
2023-04-11T22:31:30.363Z,19.90
2023-04-11T22:33:58.007Z,19.80
2023-04-11T22:36:25.152Z,19.80
2023-04-11T22:38:51.880Z,19.80
2023-04-11T22:41:18.967Z,19.80
2023-04-11T22:43:45.898Z,19.80
2023-04-11T22:46:13.113Z,19.70
2023-04-11T22:48:41.937Z,19.70
2023-04-11T22:51:08.692Z,19.70
2023-04-11T22:53:41.911Z,19.70
2023-04-11T22:56:10.738Z,19.60
2023-04-11T22:58:37.756Z,19.60
2023-04-11T23:01:04.965Z,19.60
2023-04-11T23:03:31.758Z,19.60
2023-04-11T23:05:58.545Z,19.50
2023-04-11T23:08:25.247Z,19.50
2023-04-11T23:10:51.888Z,19.50
2023-04-11T23:13:19.227Z,19.50
2023-04-11T23:15:47.142Z,19.40
2023-04-11T23:18:14.231Z,19.40
2023-04-11T23:20:44.964Z,19.40
2023-04-11T23:23:11.679Z,19.40
2023-04-11T23:25:40.680Z,19.40
2023-04-11T23:28:08.024Z,19.40
2023-04-11T23:30:39.126Z,19.40
2023-04-11T23:33:08.582Z,19.30
2023-04-11T23:35:35.998Z,19.30
2023-04-11T23:38:03.385Z,19.30
2023-04-11T23:40:30.777Z,19.20
2023-04-11T23:42:57.951Z,19.20
2023-04-11T23:45:25.336Z,19.20
2023-04-11T23:47:52.530Z,19.20
2023-04-11T23:50:19.323Z,19.20
2023-04-11T23:52:46.835Z,19.20
2023-04-11T23:55:14.335Z,19.20
2023-04-11T23:57:41.376Z,19.10
